BCS451D LIMC-LEVT
Flight info
| Callsign | BCS451D |
|---|---|
| Flight time | N/A |
| Altitude | 33000 |
| Route | NEDED DCT GEKBA DCT VAMTU DCT GANGU DCT NILDU N975 BGR T410 VIBOK M601 PPN |
| Aircraft | A306/H-SDE3FGHIRWY/LB1 |
Departure
| Time | 2026-05-04 23:18 |
|---|---|
| Airport | Milan Malpensa International Airport (LIMC) |
Arrival
| Time | N/A |
|---|---|
| Airport | Vitoria Airport (LEVT) |
| Time | Latitude | Longitude | Altitude | Speed | Heading |
|---|---|---|---|---|---|
| 2026-05-04 22:54 | 45.61354 | 8.72022 | 766 ft | 0 kts | 258° |
| 2026-05-04 23:09 | 45.61357 | 8.72042 | 766 ft | 3 kts | 259° |
| 2026-05-04 23:09 | 45.61361 | 8.72069 | 766 ft | 3 kts | 245° |
| 2026-05-04 23:10 | 45.61372 | 8.72093 | 766 ft | 3 kts | 214° |
| 2026-05-04 23:10 | 45.61390 | 8.72105 | 766 ft | 3 kts | 184° |
| 2026-05-04 23:10 | 45.61408 | 8.72106 | 766 ft | 1 kts | 174° |
| 2026-05-04 23:10 | 45.61425 | 8.72107 | 766 ft | 2 kts | 193° |
| 2026-05-04 23:11 | 45.61443 | 8.72109 | 766 ft | 2 kts | 173° |
| 2026-05-04 23:11 | 45.61459 | 8.72107 | 766 ft | 2 kts | 173° |
| 2026-05-04 23:11 | 45.61467 | 8.72105 | 766 ft | 0 kts | 173° |
| 2026-05-04 23:12 | 45.61436 | 8.72114 | 766 ft | 8 kts | 165° |
| 2026-05-04 23:13 | 45.61366 | 8.72167 | 766 ft | 14 kts | 143° |
| 2026-05-04 23:13 | 45.61256 | 8.72218 | 766 ft | 19 kts | 169° |
| 2026-05-04 23:13 | 45.61112 | 8.72260 | 766 ft | 23 kts | 167° |
| 2026-05-04 23:13 | 45.60935 | 8.72305 | 766 ft | 28 kts | 172° |
| 2026-05-04 23:14 | 45.60734 | 8.72366 | 766 ft | 31 kts | 163° |
| 2026-05-04 23:14 | 45.60641 | 8.72621 | 766 ft | 32 kts | 79° |
| 2026-05-04 23:14 | 45.60627 | 8.72918 | 766 ft | 31 kts | 101° |
| 2026-05-04 23:14 | 45.60617 | 8.73224 | 766 ft | 24 kts | 60° |
| 2026-05-04 23:15 | 45.60771 | 8.73323 | 766 ft | 26 kts | 22° |
| 2026-05-04 23:15 | 45.60958 | 8.73377 | 766 ft | 30 kts | 358° |
| 2026-05-04 23:15 | 45.61148 | 8.73345 | 766 ft | 28 kts | 351° |
| 2026-05-04 23:15 | 45.61352 | 8.73295 | 766 ft | 32 kts | 345° |
| 2026-05-04 23:16 | 45.61578 | 8.73221 | 766 ft | 31 kts | 0° |
| 2026-05-04 23:16 | 45.61642 | 8.73338 | 765 ft | 16 kts | 107° |
| 2026-05-04 23:16 | 45.61594 | 8.73512 | 766 ft | 22 kts | 112° |
| 2026-05-04 23:16 | 45.61607 | 8.73730 | 765 ft | 23 kts | 46° |
| 2026-05-04 23:17 | 45.61768 | 8.73699 | 765 ft | 48 kts | 345° |
| 2026-05-04 23:17 | 45.62339 | 8.73539 | 768 ft | 117 kts | 348° |
| 2026-05-04 23:17 | 45.63348 | 8.73258 | 762 ft | 179 kts | 348° |
| 2026-05-04 23:17 | 45.64751 | 8.72899 | 1176 ft | 215 kts | 351° |
| 2026-05-04 23:18 | 45.66228 | 8.72725 | 2316 ft | 217 kts | 2° |
| 2026-05-04 23:18 | 45.67666 | 8.73229 | 3394 ft | 209 kts | 25° |
| 2026-05-04 23:18 | 45.68829 | 8.74498 | 4134 ft | 216 kts | 51° |
| 2026-05-04 23:18 | 45.69539 | 8.76414 | 4869 ft | 220 kts | 71° |
| 2026-05-04 23:19 | 45.69992 | 8.78563 | 5417 ft | 237 kts | 74° |
| 2026-05-04 23:19 | 45.70537 | 8.80989 | 5273 ft | 280 kts | 70° |
| 2026-05-04 23:19 | 45.71192 | 8.83703 | 5859 ft | 285 kts | 71° |
| 2026-05-04 23:19 | 45.71866 | 8.86239 | 7075 ft | 275 kts | 69° |
| 2026-05-04 23:20 | 45.72490 | 8.88879 | 7670 ft | 284 kts | 82° |
| 2026-05-04 23:20 | 45.72387 | 8.91721 | 8322 ft | 291 kts | 108° |
| 2026-05-04 23:20 | 45.71389 | 8.94316 | 8599 ft | 308 kts | 134° |
| 2026-05-04 23:20 | 45.69665 | 8.96057 | 9424 ft | 302 kts | 160° |
| 2026-05-04 23:21 | 45.67662 | 8.96477 | 10616 ft | 282 kts | 184° |
| 2026-05-04 23:21 | 45.65755 | 8.96123 | 11662 ft | 276 kts | 190° |
| 2026-05-04 23:21 | 45.63877 | 8.95465 | 12163 ft | 285 kts | 200° |
| 2026-05-04 23:21 | 45.62102 | 8.94237 | 12945 ft | 282 kts | 211° |
| 2026-05-04 23:22 | 45.60648 | 8.92537 | 13672 ft | 285 kts | 228° |
| 2026-05-04 23:22 | 45.59523 | 8.90060 | 13683 ft | 310 kts | 246° |
| 2026-05-04 23:22 | 45.59105 | 8.87047 | 14326 ft | 314 kts | 268° |
| 2026-05-04 23:22 | 45.59439 | 8.83931 | 14950 ft | 320 kts | 281° |
| 2026-05-04 23:23 | 45.60080 | 8.80787 | 14974 ft | 344 kts | 287° |
| 2026-05-04 23:23 | 45.60851 | 8.77465 | 14933 ft | 363 kts | 277° |
| 2026-05-04 23:23 | 45.60741 | 8.73902 | 15484 ft | 359 kts | 254° |
| 2026-05-04 23:23 | 45.59684 | 8.70666 | 15800 ft | 366 kts | 233° |
| 2026-05-04 23:24 | 45.57800 | 8.68164 | 16027 ft | 378 kts | 213° |
| 2026-05-04 23:24 | 45.55395 | 8.66477 | 16344 ft | 389 kts | 202° |
| 2026-05-04 23:24 | 45.52823 | 8.65187 | 16804 ft | 394 kts | 199° |
| 2026-05-04 23:24 | 45.50238 | 8.63805 | 17288 ft | 397 kts | 206° |
| 2026-05-04 23:25 | 45.47872 | 8.61761 | 17781 ft | 400 kts | 218° |
| 2026-05-04 23:25 | 45.45937 | 8.58916 | 18272 ft | 403 kts | 234° |
| 2026-05-04 23:25 | 45.45909 | 8.58860 | 18278 ft | 403 kts | 234° |